Time;durP1;ratioP1;P1;durP2;ratioP2;P2;SDS_P1;SDS_P2;PMS_P1;PMS_P2;Temp;Humidity;BMP_temperature;BMP_pressure;BME280_temperature;BME280_humidity;BME280_pressure;Samples;Min_cycle;Max_cycle;Signal;HPM_P1;HPM_P2
2022/09/09 00:00:17;;;;;;;2.85;1.38;;;15.70;99.90;;;;;;5050763;28;20419;-72
2022/09/09 00:03:00;;;;;;;1.52;1.27;;;15.80;99.90;;;;;;5050442;28;20412;-73
2022/09/09 00:05:45;;;;;;;1.80;1.20;;;15.80;99.90;;;;;;5050661;28;20506;-74
2022/09/09 00:08:20;;;;;;;4.17;1.10;;;15.90;99.90;;;;;;5050823;28;20377;-73
2022/09/09 00:10:54;;;;;;;4.30;1.40;;;15.90;99.90;;;;;;5050721;28;20871;-72
2022/09/09 00:13:32;;;;;;;4.60;1.00;;;15.90;99.90;;;;;;5050349;28;20473;-74
2022/09/09 00:16:28;;;;;;;2.30;1.00;;;16.00;99.90;;;;;;5050652;28;20378;-73
2022/09/09 00:19:07;;;;;;;2.63;1.10;;;15.90;99.90;;;;;;5050387;28;20385;-74
2022/09/09 00:21:35;;;;;;;1.83;1.20;;;15.90;99.90;;;;;;5032694;28;20413;-73
2022/09/09 00:24:10;;;;;;;3.83;1.10;;;15.90;99.90;;;;;;5050231;28;20624;-72
2022/09/09 00:26:42;;;;;;;3.15;1.17;;;15.90;99.90;;;;;;5050173;28;20429;-72
2022/09/09 00:29:08;;;;;;;2.30;1.20;;;15.90;99.90;;;;;;5050281;28;20374;-72
2022/09/09 00:31:34;;;;;;;2.10;0.97;;;15.90;99.90;;;;;;5032566;28;20847;-73
2022/09/09 00:34:21;;;;;;;1.30;1.20;;;15.90;99.90;;;;;;5049986;28;20397;-74
2022/09/09 00:36:49;;;;;;;2.10;1.00;;;15.90;99.90;;;;;;5050197;28;20396;-74
2022/09/09 00:39:36;;;;;;;2.35;1.10;;;16.10;99.90;;;;;;5050185;28;20564;-74
2022/09/09 00:42:19;;;;;;;1.10;1.00;;;16.20;99.90;;;;;;5050187;28;20528;-74
2022/09/09 00:45:21;;;;;;;1.33;1.10;;;16.20;99.90;;;;;;5031860;28;20834;-73
2022/09/09 00:47:53;;;;;;;2.50;1.38;;;16.20;99.90;;;;;;4961881;28;20393;-73
2022/09/09 00:50:37;;;;;;;2.85;1.60;;;16.10;99.90;;;;;;5049806;28;20388;-74
2022/09/09 00:53:27;;;;;;;1.83;1.20;;;16.20;99.90;;;;;;5049838;28;20864;-73
2022/09/09 00:56:21;;;;;;;3.85;1.15;;;16.10;99.90;;;;;;5056716;28;20389;-73
2022/09/09 00:59:06;;;;;;;2.70;1.10;;;16.10;99.90;;;;;;5058727;28;20392;-73
2022/09/09 01:01:32;;;;;;;3.70;1.80;;;16.00;99.90;;;;;;5057024;28;20412;-73
2022/09/09 01:03:59;;;;;;;2.10;1.10;;;15.90;99.90;;;;;;5056396;28;20373;-73
2022/09/09 01:06:32;;;;;;;4.10;1.20;;;16.10;99.90;;;;;;5056439;28;20377;-73
2022/09/09 01:09:14;;;;;;;3.42;1.10;;;16.00;99.90;;;;;;5057779;28;20392;-72
2022/09/09 01:12:27;;;;;;;1.00;0.90;;;16.10;99.90;;;;;;5037287;28;20393;-74
2022/09/09 01:15:25;;;;;;;2.78;1.17;;;16.10;99.90;;;;;;5028295;28;20433;-74
2022/09/09 01:18:09;;;;;;;1.15;0.75;;;16.00;99.90;;;;;;5031911;28;20389;-74
2022/09/09 01:21:00;;;;;;;1.70;0.70;;;15.90;99.90;;;;;;5049565;28;20381;-74
2022/09/09 01:23:49;;;;;;;2.22;1.17;;;16.10;99.90;;;;;;5049269;28;20385;-74
2022/09/09 01:26:23;;;;;;;1.90;1.27;;;16.10;99.90;;;;;;5042778;28;20908;-73
2022/09/09 01:28:52;;;;;;;1.60;0.90;;;16.20;99.90;;;;;;5029819;28;20410;-74
2022/09/09 01:31:38;;;;;;;1.20;0.90;;;16.20;99.90;;;;;;5011842;28;20433;-74
2022/09/09 01:34:13;;;;;;;1.40;0.90;;;16.20;99.90;;;;;;5011587;28;20395;-74
2022/09/09 01:37:00;;;;;;;4.40;1.30;;;16.10;99.90;;;;;;5029475;28;20490;-74
2022/09/09 01:39:27;;;;;;;2.08;0.82;;;16.00;99.90;;;;;;5029566;28;20453;-74
2022/09/09 01:41:54;;;;;;;1.80;0.82;;;16.10;99.90;;;;;;5029605;28;20410;-74
2022/09/09 01:44:21;;;;;;;1.65;1.30;;;16.20;99.90;;;;;;5029202;28;20449;-74
2022/09/09 01:46:46;;;;;;;3.58;1.27;;;16.30;99.90;;;;;;5029419;28;20749;-74
2022/09/09 01:49:12;;;;;;;3.30;1.10;;;16.60;99.90;;;;;;5029586;28;20383;-73
2022/09/09 01:51:40;;;;;;;1.23;1.10;;;16.70;99.90;;;;;;5029614;28;20386;-74
2022/09/09 01:54:06;;;;;;;3.65;1.20;;;16.80;99.90;;;;;;5029186;28;20474;-74
2022/09/09 01:57:06;;;;;;;4.40;1.65;;;16.80;99.90;;;;;;5029471;28;20390;-74
2022/09/09 01:59:58;;;;;;;1.65;1.10;;;16.70;99.90;;;;;;5029638;28;20386;-73
2022/09/09 02:02:33;;;;;;;2.47;1.13;;;16.30;99.90;;;;;;5006526;28;20498;-73
2022/09/09 02:05:18;;;;;;;3.57;1.20;;;16.40;99.90;;;;;;5029270;28;20409;-73
2022/09/09 02:07:49;;;;;;;2.10;1.30;;;16.40;99.90;;;;;;5011676;28;20810;-72
2022/09/09 02:10:32;;;;;;;1.90;1.27;;;16.20;99.90;;;;;;5029390;28;20384;-73
2022/09/09 02:13:09;;;;;;;2.72;1.15;;;16.20;99.90;;;;;;5011518;28;20394;-73
2022/09/09 02:15:57;;;;;;;3.42;1.30;;;16.00;99.90;;;;;;5029091;28;20877;-73
2022/09/09 02:18:44;;;;;;;3.87;1.70;;;16.00;99.90;;;;;;5032230;28;20390;-74
2022/09/09 02:21:12;;;;;;;1.70;1.05;;;16.00;99.90;;;;;;5032629;28;20494;-73
2022/09/09 02:23:39;;;;;;;1.70;1.30;;;16.00;99.90;;;;;;5032412;28;20389;-73
2022/09/09 02:26:07;;;;;;;2.47;1.55;;;16.00;99.90;;;;;;5058009;22;20471;-71
2022/09/09 02:28:36;;;;;;;1.95;1.10;;;16.00;99.90;;;;;;5052736;28;20388;-71
2022/09/09 02:31:02;;;;;;;1.40;1.20;;;15.90;99.90;;;;;;5052489;28;20465;-70
2022/09/09 02:33:34;;;;;;;2.40;1.00;;;15.90;99.90;;;;;;5052582;28;20456;-71
2022/09/09 02:36:03;;;;;;;2.60;1.40;;;15.90;99.90;;;;;;5046633;28;20383;-71
2022/09/09 02:38:32;;;;;;;3.20;1.30;;;15.90;99.90;;;;;;5032945;28;20459;-71
2022/09/09 02:40:58;;;;;;;1.40;1.20;;;15.80;99.90;;;;;;5032307;28;20465;-71
2022/09/09 02:43:24;;;;;;;2.80;1.50;;;15.80;99.90;;;;;;5032166;28;20478;-70
2022/09/09 02:46:06;;;;;;;3.80;1.35;;;15.80;99.90;;;;;;5032105;28;21168;-70
2022/09/09 02:48:50;;;;;;;2.78;1.30;;;15.90;99.90;;;;;;5032121;28;20375;-70
2022/09/09 02:51:51;;;;;;;2.80;1.35;;;15.80;99.90;;;;;;5032187;28;20414;-71
2022/09/09 02:54:25;;;;;;;3.10;1.20;;;15.80;99.90;;;;;;5018828;28;20395;-71
2022/09/09 02:56:56;;;;;;;2.53;1.50;;;15.80;99.90;;;;;;5032190;28;20430;-71
2022/09/09 02:59:24;;;;;;;2.30;1.10;;;15.90;99.90;;;;;;5032447;28;20749;-71
2022/09/09 03:01:49;;;;;;;1.90;1.20;;;15.90;99.90;;;;;;5031929;28;20490;-71
2022/09/09 03:04:15;;;;;;;1.23;1.10;;;15.70;99.90;;;;;;5031904;28;20506;-71
2022/09/09 03:06:41;;;;;;;2.03;1.08;;;15.80;99.90;;;;;;5032100;28;20469;-70
2022/09/09 03:09:07;;;;;;;2.70;1.20;;;15.80;99.90;;;;;;5031998;28;20384;-70
2022/09/09 03:11:33;;;;;;;3.40;1.40;;;15.80;99.90;;;;;;5031894;28;20462;-71
2022/09/09 03:13:59;;;;;;;2.75;1.35;;;15.80;99.90;;;;;;5030240;28;20490;-71
2022/09/09 03:16:24;;;;;;;1.90;1.10;;;15.90;99.90;;;;;;5031463;28;20920;-71
2022/09/09 03:18:50;;;;;;;4.18;1.40;;;15.90;99.90;;;;;;5022294;28;20839;-71
2022/09/09 03:21:16;;;;;;;4.23;1.60;;;15.80;99.90;;;;;;5026371;28;20396;-71
2022/09/09 03:23:41;;;;;;;2.37;1.40;;;15.80;99.90;;;;;;5028277;28;20901;-71
2022/09/09 03:26:08;;;;;;;4.30;1.40;;;15.80;99.90;;;;;;5026046;28;20475;-70
2022/09/09 03:28:33;;;;;;;4.00;1.50;;;15.80;99.90;;;;;;5030955;28;20829;-71
2022/09/09 03:31:00;;;;;;;2.00;1.40;;;15.80;99.90;;;;;;5031517;28;20475;-70
2022/09/09 03:33:26;;;;;;;1.90;1.20;;;15.90;99.90;;;;;;5031501;28;20441;-71
2022/09/09 03:35:51;;;;;;;6.10;1.40;;;15.90;99.90;;;;;;5031678;28;20383;-72
2022/09/09 03:38:17;;;;;;;1.23;1.13;;;15.90;99.90;;;;;;5031655;28;20458;-70
2022/09/09 03:40:57;;;;;;;2.03;1.20;;;15.90;99.90;;;;;;5031753;28;20781;-71
2022/09/09 03:43:23;;;;;;;1.95;1.30;;;15.90;99.90;;;;;;5031188;28;20406;-71
2022/09/09 03:45:49;;;;;;;4.40;1.50;;;15.90;99.90;;;;;;5031450;28;20391;-71
2022/09/09 03:48:16;;;;;;;3.17;1.40;;;15.90;99.90;;;;;;5031464;28;20383;-71
2022/09/09 03:50:49;;;;;;;3.20;1.13;;;16.00;99.90;;;;;;5031505;28;20430;-71
2022/09/09 03:53:16;;;;;;;1.63;1.42;;;16.10;99.90;;;;;;5031093;28;20375;-71
2022/09/09 03:55:46;;;;;;;2.72;1.10;;;16.00;99.90;;;;;;5031260;28;20741;-70
2022/09/09 03:58:13;;;;;;;2.45;1.40;;;16.50;99.90;;;;;;5031193;28;20391;-70
2022/09/09 04:00:42;;;;;;;2.50;1.50;;;16.40;99.90;;;;;;5027963;28;20414;-71
2022/09/09 04:03:11;;;;;;;1.63;1.00;;;16.30;99.90;;;;;;5030292;28;20422;-71
2022/09/09 04:05:39;;;;;;;2.97;1.08;;;16.40;99.90;;;;;;5028460;28;20411;-71
2022/09/09 04:08:06;;;;;;;2.20;1.00;;;16.50;99.90;;;;;;5025739;28;20485;-71
2022/09/09 04:10:32;;;;;;;2.30;1.00;;;16.90;99.90;;;;;;5021425;28;20403;-70
2022/09/09 04:12:59;;;;;;;1.50;0.88;;;17.10;99.90;;;;;;5030372;28;20480;-71
2022/09/09 04:15:25;;;;;;;4.00;1.00;;;17.00;99.90;;;;;;5030267;28;20443;-71
2022/09/09 04:17:51;;;;;;;1.30;0.93;;;17.10;99.90;;;;;;5029763;28;20919;-71
2022/09/09 04:20:16;;;;;;;2.10;0.80;;;17.30;99.90;;;;;;5030313;28;20479;-70
2022/09/09 04:22:42;;;;;;;1.43;0.80;;;17.40;99.90;;;;;;5029047;28;20579;-71
2022/09/09 04:25:08;;;;;;;1.90;1.25;;;17.40;99.90;;;;;;5030752;28;20390;-70
2022/09/09 04:27:33;;;;;;;2.10;1.00;;;17.50;99.90;;;;;;5028912;28;20498;-71
2022/09/09 04:29:59;;;;;;;2.70;1.07;;;17.50;99.90;;;;;;5030170;28;20929;-70
2022/09/09 04:32:27;;;;;;;1.40;0.93;;;17.50;99.90;;;;;;5030104;28;20379;-70
2022/09/09 04:34:52;;;;;;;1.20;1.10;;;17.50;99.90;;;;;;5029883;28;20802;-70
2022/09/09 04:37:18;;;;;;;1.45;0.90;;;17.50;99.90;;;;;;5029688;28;20449;-70
2022/09/09 04:39:45;;;;;;;3.97;0.95;;;17.40;99.90;;;;;;5030147;28;20804;-72
2022/09/09 04:42:12;;;;;;;1.67;0.90;;;17.60;99.90;;;;;;5012675;28;20407;-72
2022/09/09 04:44:37;;;;;;;2.20;0.90;;;17.60;99.90;;;;;;5030323;28;20383;-72
2022/09/09 04:47:03;;;;;;;4.70;1.10;;;17.70;99.90;;;;;;5029104;28;20917;-72
2022/09/09 04:49:30;;;;;;;1.50;0.80;;;17.70;99.90;;;;;;5030557;28;20386;-73
2022/09/09 04:51:56;;;;;;;1.83;1.02;;;17.70;99.90;;;;;;5009429;28;20444;-72
2022/09/09 04:54:21;;;;;;;1.33;0.70;;;17.70;99.90;;;;;;5027988;28;20522;-73
2022/09/09 04:56:47;;;;;;;2.47;1.03;;;17.80;99.90;;;;;;5023978;28;21108;-72
2022/09/09 04:59:12;;;;;;;4.50;0.80;;;17.80;99.90;;;;;;5028883;28;20773;-72
2022/09/09 05:01:38;;;;;;;3.10;0.80;;;17.80;99.90;;;;;;5024476;28;20422;-72
2022/09/09 05:04:03;;;;;;;1.87;0.90;;;17.80;99.90;;;;;;5024558;28;20409;-72
2022/09/09 05:06:31;;;;;;;3.60;0.98;;;17.80;99.90;;;;;;5029814;28;20422;-71
2022/09/09 05:08:57;;;;;;;0.80;0.70;;;18.00;99.90;;;;;;5027553;28;20485;-72
2022/09/09 05:11:24;;;;;;;2.00;1.20;;;17.80;99.90;;;;;;5026430;28;20959;-72
2022/09/09 05:13:50;;;;;;;2.30;0.80;;;17.80;99.90;;;;;;5022365;28;20494;-72
2022/09/09 05:16:17;;;;;;;2.63;1.00;;;17.80;99.90;;;;;;5027421;28;20413;-71
2022/09/09 05:18:43;;;;;;;2.17;0.80;;;17.80;99.90;;;;;;5025713;28;20447;-73
2022/09/09 05:21:10;;;;;;;1.77;1.10;;;17.70;99.90;;;;;;5029420;28;20441;-72
2022/09/09 05:23:36;;;;;;;2.22;1.00;;;17.60;99.90;;;;;;5023004;28;20383;-72
2022/09/09 05:26:03;;;;;;;3.20;1.10;;;17.60;99.90;;;;;;5029043;28;20477;-72
2022/09/09 05:28:30;;;;;;;0.90;0.80;;;17.60;99.90;;;;;;5019260;28;20410;-72
2022/09/09 05:31:00;;;;;;;1.13;0.95;;;17.50;99.90;;;;;;5024924;28;20387;-72
2022/09/09 05:33:27;;;;;;;2.55;0.75;;;17.70;99.90;;;;;;5029788;28;20391;-72
2022/09/09 05:35:57;;;;;;;3.08;1.00;;;17.80;99.90;;;;;;5026788;28;20406;-72
2022/09/09 05:38:25;;;;;;;1.02;0.75;;;17.80;99.90;;;;;;5029517;28;20749;-73
2022/09/09 05:40:52;;;;;;;2.80;1.30;;;17.90;99.90;;;;;;5023872;28;20411;-72
2022/09/09 05:43:19;;;;;;;2.58;0.93;;;17.90;99.90;;;;;;5028281;28;20419;-72
2022/09/09 05:45:48;;;;;;;0.93;0.70;;;17.90;99.90;;;;;;5029738;28;20477;-72
2022/09/09 05:48:17;;;;;;;1.90;1.00;;;17.90;99.90;;;;;;5029352;28;20876;-72
2022/09/09 05:50:43;;;;;;;1.00;0.90;;;17.90;99.90;;;;;;5030561;28;20387;-72
2022/09/09 05:53:10;;;;;;;1.10;0.70;;;17.90;99.90;;;;;;5033497;28;20409;-71
2022/09/09 05:55:35;;;;;;;0.70;0.60;;;17.90;99.90;;;;;;5033573;28;20429;-72
2022/09/09 05:58:01;;;;;;;3.73;1.30;;;18.00;99.90;;;;;;5033496;28;20888;-71
2022/09/09 06:00:27;;;;;;;2.57;0.83;;;18.00;99.90;;;;;;5033571;28;20478;-69
2022/09/09 06:02:53;;;;;;;2.45;0.98;;;17.90;99.90;;;;;;5033089;28;20857;-70
2022/09/09 06:05:19;;;;;;;3.53;1.00;;;18.00;99.90;;;;;;5030282;28;20397;-72
2022/09/09 06:07:45;;;;;;;2.50;0.85;;;18.00;99.90;;;;;;5033282;28;20462;-70
2022/09/09 06:10:13;;;;;;;1.30;0.90;;;18.00;99.90;;;;;;5033502;28;20482;-70
2022/09/09 06:12:39;;;;;;;1.37;1.00;;;18.00;99.90;;;;;;5030997;28;20419;-70
2022/09/09 06:15:05;;;;;;;1.50;0.80;;;18.00;99.90;;;;;;5029832;28;20824;-70
2022/09/09 06:17:30;;;;;;;1.70;0.80;;;18.00;99.90;;;;;;5021462;28;20935;-71
2022/09/09 06:19:56;;;;;;;1.90;0.90;;;18.10;99.90;;;;;;5030227;28;20471;-69
2022/09/09 06:22:22;;;;;;;4.13;1.10;;;18.10;99.90;;;;;;5033064;28;20406;-69
2022/09/09 06:24:48;;;;;;;31.67;22.75;;;18.00;99.90;;;;;;5032884;28;20386;-71
2022/09/09 06:27:13;;;;;;;2.63;0.80;;;18.00;99.90;;;;;;5032770;28;20448;-71
2022/09/09 06:29:39;;;;;;;0.90;0.70;;;18.10;99.90;;;;;;5032305;28;20379;-70
2022/09/09 06:32:05;;;;;;;1.35;0.60;;;18.20;99.90;;;;;;5007974;28;20399;-71
2022/09/09 06:34:30;;;;;;;3.38;0.80;;;18.20;99.90;;;;;;5031343;28;20391;-70
2022/09/09 06:36:59;;;;;;;1.58;0.60;;;18.20;99.90;;;;;;5022338;28;20398;-70
2022/09/09 06:39:25;;;;;;;3.00;1.10;;;18.20;99.90;;;;;;5017655;28;20401;-69
2022/09/09 06:41:52;;;;;;;2.55;0.80;;;18.20;99.90;;;;;;5029135;28;20406;-70
2022/09/09 06:44:18;;;;;;;2.45;0.85;;;18.20;99.90;;;;;;5024714;28;20401;-70
2022/09/09 06:46:47;;;;;;;1.75;0.90;;;18.30;99.90;;;;;;5032138;28;20383;-70
2022/09/09 06:49:13;;;;;;;2.40;0.80;;;18.20;99.90;;;;;;5032586;28;20387;-70
2022/09/09 06:51:49;;;;;;;5.00;1.30;;;18.30;99.90;;;;;;5032542;28;20437;-69
2022/09/09 06:54:14;;;;;;;3.60;0.90;;;18.20;99.90;;;;;;5033068;28;20474;-70
2022/09/09 06:56:42;;;;;;;1.42;0.82;;;18.10;99.90;;;;;;5032467;28;20770;-69
2022/09/09 06:59:09;;;;;;;3.60;1.00;;;18.10;99.90;;;;;;5032552;28;20398;-71
2022/09/09 07:01:46;;;;;;;2.88;0.90;;;18.00;99.90;;;;;;5032482;28;20410;-70
2022/09/09 07:04:13;;;;;;;1.42;0.80;;;18.10;99.90;;;;;;5029839;28;20379;-70
2022/09/09 07:06:43;;;;;;;1.50;0.80;;;18.20;99.90;;;;;;5032317;28;20885;-70
2022/09/09 07:09:10;;;;;;;2.75;1.30;;;18.20;99.90;;;;;;5032195;28;20828;-70
2022/09/09 07:11:41;;;;;;;3.50;0.90;;;18.40;99.90;;;;;;5030162;28;20418;-68
2022/09/09 07:14:08;;;;;;;2.00;0.77;;;18.40;99.90;;;;;;5023054;28;20419;-71
2022/09/09 07:16:36;;;;;;;5.38;1.10;;;18.50;99.90;;;;;;5027721;28;20927;-70
2022/09/09 07:19:03;;;;;;;2.50;0.77;;;18.40;99.90;;;;;;5026371;28;20438;-69
2022/09/09 07:21:30;;;;;;;3.50;1.30;;;18.50;99.90;;;;;;5028644;28;20410;-69
2022/09/09 07:23:56;;;;;;;2.35;0.80;;;18.50;99.90;;;;;;5026980;28;20403;-70
2022/09/09 07:26:25;;;;;;;2.22;1.17;;;18.50;99.90;;;;;;5028397;28;20463;-67
2022/09/09 07:28:50;;;;;;;1.45;1.10;;;18.50;99.90;;;;;;5029599;28;20414;-68
2022/09/09 07:31:27;;;;;;;3.53;0.82;;;18.60;99.90;;;;;;5029101;28;20458;-68
2022/09/09 07:33:53;;;;;;;3.20;0.70;;;18.70;99.90;;;;;;5027421;28;20773;-69
2022/09/09 07:36:23;;;;;;;3.58;1.10;;;18.80;99.90;;;;;;5031569;28;20375;-69
2022/09/09 07:38:57;;;;;;;2.37;1.40;;;18.70;99.90;;;;;;5017589;28;20426;-70
2022/09/09 07:41:31;;;;;;;3.15;1.05;;;18.70;99.90;;;;;;5028771;28;20497;-68
2022/09/09 07:43:56;;;;;;;1.23;0.90;;;18.70;99.90;;;;;;5029888;28;20399;-69
2022/09/09 07:46:25;;;;;;;1.70;0.70;;;18.80;99.90;;;;;;5031237;28;20877;-68
2022/09/09 07:48:53;;;;;;;2.70;1.00;;;18.70;99.90;;;;;;5029563;28;20411;-67
2022/09/09 07:51:23;;;;;;;2.30;0.90;;;18.80;99.90;;;;;;5023636;28;20404;-69
2022/09/09 07:53:52;;;;;;;4.10;1.00;;;18.80;99.90;;;;;;5028394;28;20406;-67
2022/09/09 07:56:22;;;;;;;2.70;1.10;;;18.80;99.90;;;;;;5026304;28;20403;-69
2022/09/09 07:58:49;;;;;;;2.47;0.82;;;18.70;99.90;;;;;;5026107;28;20414;-68
2022/09/09 08:01:26;;;;;;;1.85;1.00;;;18.70;99.90;;;;;;5025750;28;20904;-68
2022/09/09 08:04:03;;;;;;;1.00;0.70;;;18.60;99.90;;;;;;5029090;28;20429;-69
2022/09/09 08:06:32;;;;;;;3.95;1.30;;;18.50;99.90;;;;;;5026465;28;20758;-68
2022/09/09 08:08:58;;;;;;;2.00;1.00;;;18.40;99.90;;;;;;5025102;28;20504;-70
2022/09/09 08:11:25;;;;;;;2.10;1.20;;;18.50;99.90;;;;;;5026860;28;20893;-69
2022/09/09 08:13:52;;;;;;;2.30;1.02;;;18.70;99.90;;;;;;5027444;28;20932;-69
2022/09/09 08:16:23;;;;;;;1.90;1.10;;;18.70;99.90;;;;;;5026238;28;20904;-68
2022/09/09 08:18:50;;;;;;;2.42;0.82;;;18.60;99.90;;;;;;5028530;28;20430;-69
2022/09/09 08:21:21;;;;;;;2.63;0.85;;;18.60;99.90;;;;;;5027796;28;20686;-68
2022/09/09 08:23:47;;;;;;;4.93;1.10;;;18.50;99.90;;;;;;5025249;28;20399;-67
2022/09/09 08:26:15;;;;;;;2.63;1.02;;;18.60;99.90;;;;;;5026375;28;20438;-69
2022/09/09 08:28:42;;;;;;;2.90;1.00;;;18.70;99.90;;;;;;5023309;28;20931;-70
2022/09/09 08:31:11;;;;;;;2.38;0.90;;;18.70;99.90;;;;;;5028960;28;20415;-69
2022/09/09 08:33:38;;;;;;;2.50;0.90;;;18.50;99.90;;;;;;5007098;28;20406;-69
2022/09/09 08:36:05;;;;;;;4.35;1.13;;;18.70;99.90;;;;;;5023644;28;20801;-69
2022/09/09 08:38:30;;;;;;;3.85;1.30;;;18.70;99.90;;;;;;5042446;22;20522;-74
2022/09/09 08:41:16;;;;;;;2.93;1.00;;;18.80;99.90;;;;;;5047182;28;20906;-74
2022/09/09 08:43:45;;;;;;;164.15;118.53;;;18.80;99.90;;;;;;5042442;28;20479;-73
2022/09/09 08:46:43;;;;;;;11.80;10.50;;;18.90;99.90;;;;;;5046432;28;21300;-74
2022/09/09 08:49:37;;;;;;;2.22;1.00;;;18.90;99.90;;;;;;5017056;28;20421;-74
2022/09/09 08:52:08;;;;;;;1.88;0.90;;;19.00;99.90;;;;;;5025973;28;20401;-73
2022/09/09 08:54:36;;;;;;;2.33;0.80;;;19.10;99.90;;;;;;5024201;28;20409;-74
2022/09/09 08:57:03;;;;;;;2.58;0.95;;;19.30;99.90;;;;;;5031503;28;20402;-74
2022/09/09 08:59:28;;;;;;;1.63;0.80;;;19.40;99.90;;;;;;5028946;28;20391;-73
2022/09/09 09:02:08;;;;;;;2.40;0.90;;;19.40;99.90;;;;;;5017996;28;20416;-74
2022/09/09 09:04:45;;;;;;;2.60;0.82;;;19.50;99.90;;;;;;5025683;28;20399;-74
2022/09/09 09:07:34;;;;;;;3.60;1.10;;;19.60;99.90;;;;;;5022155;28;20480;-74
2022/09/09 09:10:28;;;;;;;2.35;0.80;;;19.50;99.90;;;;;;5017883;28;20424;-74
2022/09/09 09:12:53;;;;;;;2.13;0.70;;;19.70;99.90;;;;;;5017041;28;21047;-74
2022/09/09 09:15:24;;;;;;;3.13;1.30;;;19.80;99.90;;;;;;5030388;28;20401;-74
2022/09/09 09:17:50;;;;;;;3.85;0.82;;;19.80;99.90;;;;;;5018585;28;20915;-73
2022/09/09 09:20:18;;;;;;;3.80;1.00;;;20.00;99.90;;;;;;5013515;28;20419;-72
2022/09/09 09:22:48;;;;;;;3.30;1.00;;;20.00;99.90;;;;;;5022339;28;20413;-73
2022/09/09 09:25:21;;;;;;;2.67;0.80;;;20.20;99.90;;;;;;5019656;28;20408;-74
2022/09/09 09:27:57;;;;;;;1.63;0.82;;;20.20;99.90;;;;;;5025078;28;20404;-72
2022/09/09 09:30:26;;;;;;;2.10;1.00;;;20.30;99.90;;;;;;5038989;28;20758;-72
2022/09/09 09:33:03;;;;;;;2.20;0.73;;;20.20;99.90;;;;;;5032709;28;20542;-73
2022/09/09 09:35:28;;;;;;;1.83;0.77;;;20.10;99.90;;;;;;5018366;28;20411;-73
2022/09/09 09:37:54;;;;;;;1.80;0.90;;;20.00;99.90;;;;;;5017874;28;20979;-76
2022/09/09 09:40:21;;;;;;;1.70;0.98;;;20.10;99.90;;;;;;5032754;28;20401;-75
2022/09/09 09:42:57;;;;;;;2.00;0.80;;;20.20;99.90;;;;;;5022032;28;20409;-76
2022/09/09 09:45:28;;;;;;;2.80;0.90;;;20.10;99.90;;;;;;5014115;28;20403;-75
2022/09/09 09:48:05;;;;;;;2.72;0.95;;;20.00;99.90;;;;;;5013002;28;20380;-75
2022/09/09 09:50:32;;;;;;;3.70;1.00;;;19.90;99.90;;;;;;5022083;28;20774;-74
2022/09/09 09:53:03;;;;;;;2.22;1.02;;;20.00;99.90;;;;;;5028267;28;20413;-74
2022/09/09 09:55:31;;;;;;;3.80;0.90;;;20.20;99.90;;;;;;5025577;28;20413;-72
2022/09/09 09:58:05;;;;;;;1.60;0.90;;;20.10;99.90;;;;;;5028010;28;20869;-71
2022/09/09 10:00:32;;;;;;;2.45;1.00;;;20.00;99.90;;;;;;5028633;28;20438;-71
2022/09/09 10:02:59;;;;;;;1.88;0.80;;;20.00;99.90;;;;;;5019359;28;20471;-72
2022/09/09 10:05:28;;;;;;;1.45;0.70;;;20.00;99.90;;;;;;5024714;28;20412;-71
2022/09/09 10:08:02;;;;;;;1.70;0.77;;;20.20;99.90;;;;;;5016602;28;20385;-71
2022/09/09 10:10:42;;;;;;;2.80;0.70;;;20.40;99.90;;;;;;5018084;28;20409;-75
2022/09/09 10:13:46;;;;;;;1.00;0.90;;;20.60;99.90;;;;;;5024293;28;20485;-73
2022/09/09 10:16:37;;;;;;;1.83;0.63;;;20.70;99.90;;;;;;5014394;28;20407;-74
2022/09/09 10:19:30;;;;;;;3.50;1.23;;;20.80;97.10;;;;;;5029620;28;20411;-73
2022/09/09 10:22:14;;;;;;;3.40;1.13;;;20.80;97.00;;;;;;5018149;28;20451;-74
2022/09/09 10:25:06;;;;;;;2.38;0.80;;;21.00;97.50;;;;;;5017198;28;20384;-73
2022/09/09 10:28:09;;;;;;;2.30;0.80;;;20.90;97.70;;;;;;5030513;28;20765;-73
2022/09/09 10:30:43;;;;;;;1.17;0.57;;;21.20;94.70;;;;;;5033354;28;20395;-73
2022/09/09 10:33:42;;;;;;;1.40;0.55;;;21.20;94.30;;;;;;5032788;28;20386;-74
2022/09/09 10:36:24;;;;;;;2.20;0.70;;;21.00;92.00;;;;;;5027712;28;20988;-74
2022/09/09 10:39:27;;;;;;;4.10;0.70;;;20.50;98.00;;;;;;5011819;28;20427;-75
2022/09/09 10:42:16;;;;;;;1.95;0.80;;;19.50;99.90;;;;;;5009911;28;20508;-74
2022/09/09 10:44:59;;;;;;;2.10;0.60;;;17.90;99.90;;;;;;5028837;28;20381;-75
2022/09/09 10:47:38;;;;;;;2.50;0.80;;;17.50;99.90;;;;;;5016242;28;20478;-75
2022/09/09 10:50:39;;;;;;;1.42;0.93;;;17.30;99.90;;;;;;5018577;28;20376;-75
2022/09/09 10:53:27;;;;;;;2.03;0.68;;;17.40;99.90;;;;;;5016700;28;20404;-75
2022/09/09 10:56:14;;;;;;;2.23;0.90;;;17.60;99.90;;;;;;5032417;28;20387;-74
2022/09/09 10:58:56;;;;;;;1.50;0.60;;;18.00;99.90;;;;;;5020590;28;20449;-74
2022/09/09 11:01:53;;;;;;;3.10;0.80;;;18.30;99.90;;;;;;5021474;28;20401;-74
2022/09/09 11:04:39;;;;;;;2.50;1.10;;;18.50;99.90;;;;;;5022278;28;20435;-74
2022/09/09 11:07:13;;;;;;;1.17;0.70;;;18.90;99.90;;;;;;5011964;28;20397;-74
2022/09/09 11:09:48;;;;;;;3.53;1.10;;;19.40;99.90;;;;;;5012645;28;20416;-74
2022/09/09 11:12:19;;;;;;;2.60;0.60;;;19.70;99.90;;;;;;5017489;28;20490;-74
2022/09/09 11:14:53;;;;;;;4.55;0.90;;;19.60;99.90;;;;;;5022319;28;20412;-75
2022/09/09 11:17:24;;;;;;;4.38;0.98;;;19.70;99.90;;;;;;5021716;28;20827;-74
2022/09/09 11:19:50;;;;;;;3.58;1.20;;;19.70;99.90;;;;;;5020652;28;20482;-74
2022/09/09 11:22:30;;;;;;;3.10;1.00;;;19.80;99.90;;;;;;5013163;28;20421;-74
2022/09/09 11:25:08;;;;;;;1.83;0.82;;;19.60;99.90;;;;;;5016042;28;20405;-74
2022/09/09 11:28:06;;;;;;;1.48;0.73;;;19.50;99.90;;;;;;5019911;28;20409;-74
2022/09/09 11:30:44;;;;;;;2.40;0.90;;;19.50;99.90;;;;;;5020850;28;20459;-74
2022/09/09 11:33:21;;;;;;;2.92;0.63;;;19.50;99.90;;;;;;5022495;28;20414;-75
2022/09/09 11:36:20;;;;;;;2.17;0.88;;;19.90;99.90;;;;;;5022201;28;20423;-75
2022/09/09 11:38:48;;;;;;;3.10;1.08;;;20.10;99.90;;;;;;5015132;28;20416;-75
2022/09/09 11:41:16;;;;;;;1.70;0.90;;;21.00;99.90;;;;;;5013047;28;20503;-75
2022/09/09 11:44:12;;;;;;;1.80;0.70;;;21.90;99.10;;;;;;5011623;28;20420;-75
2022/09/09 11:46:41;;;;;;;3.10;1.00;;;22.80;97.10;;;;;;4983706;28;20423;-75
2022/09/09 11:49:31;;;;;;;1.35;0.77;;;22.30;97.20;;;;;;5011352;28;20460;-74
2022/09/09 11:51:57;;;;;;;3.30;0.80;;;22.20;98.90;;;;;;5010387;28;20435;-76
2022/09/09 11:54:29;;;;;;;2.00;0.90;;;22.60;98.40;;;;;;5011164;28;20428;-75
2022/09/09 11:56:54;;;;;;;3.67;0.70;;;23.30;94.00;;;;;;5011590;28;20431;-76
2022/09/09 11:59:24;;;;;;;3.70;0.80;;;23.40;93.60;;;;;;5011649;28;20417;-76
2022/09/09 12:02:10;;;;;;;2.33;0.70;;;22.50;96.20;;;;;;5011443;28;20756;-75
2022/09/09 12:04:40;;;;;;;1.92;0.70;;;22.20;96.70;;;;;;5010037;28;20389;-75
2022/09/09 12:07:08;;;;;;;2.97;0.60;;;22.80;94.20;;;;;;5011474;28;20395;-76
2022/09/09 12:09:43;;;;;;;1.63;0.60;;;23.30;92.00;;;;;;5011492;28;20456;-74
2022/09/09 12:12:11;;;;;;;1.50;0.70;;;22.80;85.00;;;;;;5011233;28;20501;-75
2022/09/09 12:14:54;;;;;;;3.00;0.80;;;22.80;87.50;;;;;;5011128;28;20811;-74
2022/09/09 12:17:22;;;;;;;1.50;0.60;;;22.20;84.60;;;;;;5011294;28;20759;-74
2022/09/09 12:20:03;;;;;;;1.73;0.50;;;21.80;86.40;;;;;;5011252;28;20388;-74
2022/09/09 12:22:35;;;;;;;2.00;0.80;;;21.80;87.00;;;;;;5010553;28;20404;-75
2022/09/09 12:25:31;;;;;;;1.60;0.60;;;21.60;88.80;;;;;;5011236;28;20747;-75
2022/09/09 12:28:12;;;;;;;2.33;0.80;;;21.40;90.00;;;;;;5009750;28;20766;-75
2022/09/09 12:31:07;;;;;;;3.22;0.75;;;21.40;90.70;;;;;;5011064;28;20373;-74
2022/09/09 12:33:43;;;;;;;1.90;0.70;;;22.10;89.30;;;;;;5010496;28;20875;-75
2022/09/09 12:36:14;;;;;;;2.50;0.68;;;22.30;89.00;;;;;;5011044;28;20399;-75
2022/09/09 12:38:41;;;;;;;2.53;0.70;;;21.80;91.00;;;;;;5010715;28;20895;-75
2022/09/09 12:41:25;;;;;;;2.67;0.60;;;21.70;92.90;;;;;;5010766;28;20450;-72
2022/09/09 12:43:51;;;;;;;3.33;0.90;;;22.00;91.70;;;;;;5010614;28;20396;-72
2022/09/09 12:46:42;;;;;;;3.05;1.00;;;21.80;91.80;;;;;;5027925;28;20445;-75
2022/09/09 12:49:34;;;;;;;2.87;0.90;;;21.50;92.90;;;;;;5030448;28;20379;-75
2022/09/09 12:52:21;;;;;;;0.93;0.50;;;21.30;94.10;;;;;;5030661;28;20390;-75
2022/09/09 12:54:47;;;;;;;2.10;0.80;;;21.20;94.90;;;;;;5029962;28;20883;-75
2022/09/09 12:57:14;;;;;;;4.50;1.10;;;20.90;96.40;;;;;;5029270;28;20757;-75
2022/09/09 12:59:44;;;;;;;4.97;1.15;;;20.80;96.90;;;;;;5029033;28;20395;-75
2022/09/09 13:02:25;;;;;;;1.60;0.60;;;20.80;96.60;;;;;;5029787;28;20424;-74
2022/09/09 13:04:51;;;;;;;2.90;0.80;;;20.90;97.10;;;;;;5030216;28;20398;-72
2022/09/09 13:07:18;;;;;;;1.80;0.90;;;20.90;97.00;;;;;;5030469;28;20463;-73
2022/09/09 13:09:45;;;;;;;3.30;0.80;;;20.60;97.00;;;;;;5030241;28;20497;-73
2022/09/09 13:12:22;;;;;;;1.52;0.90;;;20.50;97.50;;;;;;5030136;28;21083;-73
2022/09/09 13:14:51;;;;;;;1.40;0.60;;;20.40;99.90;;;;;;5030042;28;20379;-73